Saint Paul Park, Minnesota
Current Conditions -  °F | °C
As of 12:50 PM on Friday 24 Oct 2014 (Local Time) from KSGS Reporting Station
Overcast Overcast  
Wind Chill: 61°   Ceiling: 1800
Heat Index: 61°   Visibility: 10mi
Dew Point: 54°   Wind: 8mph
Humidity: 76%   Direction: 180°S
Pressure: 29.86"   Gusts: NA
Location:  44.84°N, 92.99°W
Report Text: KSGS 241750Z AUTO 18007KT 10SM OVC018 16/12 A2986 RMK AO2 T01630120
Loading
Personal Weather Stations






























Interactive Weather Map
Tropical Storm Tracking
New forecast layout! Learn more

10-Day Weather Forecast

Advertisements
Track Severe Weather on mobile